sensor_id;sensor_type;location;lat;lon;timestamp;temperature;humidity
3492;DHT22;1760;52.480;13.422;2024-01-10T00:01:51;-5.10;99.90
3492;DHT22;1760;52.480;13.422;2024-01-10T00:04:19;-5.10;99.90
3492;DHT22;1760;52.480;13.422;2024-01-10T00:06:47;-5.10;99.90
3492;DHT22;1760;52.480;13.422;2024-01-10T00:09:15;-5.10;99.90
3492;DHT22;1760;52.480;13.422;2024-01-10T00:11:42;-5.10;99.90
3492;DHT22;1760;52.480;13.422;2024-01-10T00:14:09;-5.20;99.90
3492;DHT22;1760;52.480;13.422;2024-01-10T00:16:36;-5.20;99.90
3492;DHT22;1760;52.480;13.422;2024-01-10T00:19:03;-5.10;99.90
3492;DHT22;1760;52.480;13.422;2024-01-10T00:21:30;-5.10;99.90
3492;DHT22;1760;52.480;13.422;2024-01-10T00:23:58;-5.10;99.90
3492;DHT22;1760;52.480;13.422;2024-01-10T00:26:27;-5.10;99.90
3492;DHT22;1760;52.480;13.422;2024-01-10T00:28:53;-5.10;99.90
3492;DHT22;1760;52.480;13.422;2024-01-10T00:31:20;-5.10;99.90
3492;DHT22;1760;52.480;13.422;2024-01-10T00:33:47;-5.10;99.90
3492;DHT22;1760;52.480;13.422;2024-01-10T00:36:14;-5.10;99.90
3492;DHT22;1760;52.480;13.422;2024-01-10T00:38:41;-5.10;99.90
3492;DHT22;1760;52.480;13.422;2024-01-10T00:41:08;-5.10;99.90
3492;DHT22;1760;52.480;13.422;2024-01-10T00:43:36;-5.10;99.90
3492;DHT22;1760;52.480;13.422;2024-01-10T00:46:03;-5.10;99.90
3492;DHT22;1760;52.480;13.422;2024-01-10T00:48:31;-5.10;99.90
3492;DHT22;1760;52.480;13.422;2024-01-10T00:50:59;-5.10;99.90
3492;DHT22;1760;52.480;13.422;2024-01-10T00:53:26;-5.10;99.90
3492;DHT22;1760;52.480;13.422;2024-01-10T00:55:53;-5.10;99.90
3492;DHT22;1760;52.480;13.422;2024-01-10T00:58:20;-5.20;99.90
3492;DHT22;1760;52.480;13.422;2024-01-10T01:00:48;-5.20;99.90
3492;DHT22;1760;52.480;13.422;2024-01-10T01:03:15;-5.20;99.90
3492;DHT22;1760;52.480;13.422;2024-01-10T01:05:42;-5.20;99.90
3492;DHT22;1760;52.480;13.422;2024-01-10T01:08:08;-5.20;99.90
3492;DHT22;1760;52.480;13.422;2024-01-10T01:10:35;-5.20;99.90
3492;DHT22;1760;52.480;13.422;2024-01-10T01:13:02;-5.20;99.90
3492;DHT22;1760;52.480;13.422;2024-01-10T01:15:29;-5.20;99.90
3492;DHT22;1760;52.480;13.422;2024-01-10T01:17:57;-5.30;99.90
3492;DHT22;1760;52.480;13.422;2024-01-10T01:20:24;-5.10;99.90
3492;DHT22;1760;52.480;13.422;2024-01-10T01:22:51;-5.20;99.90
3492;DHT22;1760;52.480;13.422;2024-01-10T01:25:18;-5.20;99.90
3492;DHT22;1760;52.480;13.422;2024-01-10T01:27:45;-5.20;99.90
3492;DHT22;1760;52.480;13.422;2024-01-10T01:30:12;-5.20;99.90
3492;DHT22;1760;52.480;13.422;2024-01-10T01:32:40;-5.30;99.90
3492;DHT22;1760;52.480;13.422;2024-01-10T01:35:08;-5.30;99.90
3492;DHT22;1760;52.480;13.422;2024-01-10T01:37:37;-5.20;99.90
3492;DHT22;1760;52.480;13.422;2024-01-10T01:40:05;-5.20;99.90
3492;DHT22;1760;52.480;13.422;2024-01-10T01:42:32;-5.20;99.90
3492;DHT22;1760;52.480;13.422;2024-01-10T01:44:59;-5.20;99.90
3492;DHT22;1760;52.480;13.422;2024-01-10T01:47:26;-5.10;99.90
3492;DHT22;1760;52.480;13.422;2024-01-10T01:49:53;-5.20;99.90
3492;DHT22;1760;52.480;13.422;2024-01-10T01:52:21;-5.20;99.90
3492;DHT22;1760;52.480;13.422;2024-01-10T01:54:50;-4.90;99.90
3492;DHT22;1760;52.480;13.422;2024-01-10T01:57:17;-5.10;99.90
3492;DHT22;1760;52.480;13.422;2024-01-10T01:59:44;-5.00;99.90
3492;DHT22;1760;52.480;13.422;2024-01-10T02:02:12;-5.10;99.90
3492;DHT22;1760;52.480;13.422;2024-01-10T02:04:41;-5.20;99.90
3492;DHT22;1760;52.480;13.422;2024-01-10T02:07:09;-5.20;99.90
3492;DHT22;1760;52.480;13.422;2024-01-10T02:09:37;-5.20;99.90
3492;DHT22;1760;52.480;13.422;2024-01-10T02:12:04;-5.10;99.90
3492;DHT22;1760;52.480;13.422;2024-01-10T02:14:31;-5.10;99.90
3492;DHT22;1760;52.480;13.422;2024-01-10T02:16:57;-5.10;99.90
3492;DHT22;1760;52.480;13.422;2024-01-10T02:19:24;-5.10;99.90
3492;DHT22;1760;52.480;13.422;2024-01-10T02:21:52;-5.10;99.90
3492;DHT22;1760;52.480;13.422;2024-01-10T02:24:19;-5.20;99.90
3492;DHT22;1760;52.480;13.422;2024-01-10T02:26:47;-5.10;99.90
3492;DHT22;1760;52.480;13.422;2024-01-10T02:29:15;-5.20;99.90
3492;DHT22;1760;52.480;13.422;2024-01-10T02:31:42;-5.20;99.90
3492;DHT22;1760;52.480;13.422;2024-01-10T02:34:09;-5.20;99.90
3492;DHT22;1760;52.480;13.422;2024-01-10T02:36:36;-4.10;99.90
3492;DHT22;1760;52.480;13.422;2024-01-10T02:39:03;-5.30;99.90
3492;DHT22;1760;52.480;13.422;2024-01-10T02:41:30;-5.30;99.90
3492;DHT22;1760;52.480;13.422;2024-01-10T02:43:58;-5.30;99.90
3492;DHT22;1760;52.480;13.422;2024-01-10T02:46:25;-5.30;99.90
3492;DHT22;1760;52.480;13.422;2024-01-10T02:48:54;-5.30;99.90
3492;DHT22;1760;52.480;13.422;2024-01-10T02:51:22;-4.30;99.90
3492;DHT22;1760;52.480;13.422;2024-01-10T02:53:49;-5.20;99.90
3492;DHT22;1760;52.480;13.422;2024-01-10T02:56:15;-5.40;99.90
3492;DHT22;1760;52.480;13.422;2024-01-10T02:58:42;-5.40;99.90
3492;DHT22;1760;52.480;13.422;2024-01-10T03:01:10;-5.30;99.90
3492;DHT22;1760;52.480;13.422;2024-01-10T03:03:37;-5.30;99.90
3492;DHT22;1760;52.480;13.422;2024-01-10T03:06:04;-5.30;99.90
3492;DHT22;1760;52.480;13.422;2024-01-10T03:08:31;-5.30;99.90
3492;DHT22;1760;52.480;13.422;2024-01-10T03:10:58;-5.20;99.90
3492;DHT22;1760;52.480;13.422;2024-01-10T03:13:25;-5.30;99.90
3492;DHT22;1760;52.480;13.422;2024-01-10T03:15:52;-5.20;99.90
3492;DHT22;1760;52.480;13.422;2024-01-10T03:18:20;-5.20;99.90
3492;DHT22;1760;52.480;13.422;2024-01-10T03:20:47;-5.20;99.90
3492;DHT22;1760;52.480;13.422;2024-01-10T03:23:13;-5.20;99.90
3492;DHT22;1760;52.480;13.422;2024-01-10T03:25:40;-5.20;99.90
3492;DHT22;1760;52.480;13.422;2024-01-10T03:28:07;-5.20;99.90
3492;DHT22;1760;52.480;13.422;2024-01-10T03:30:34;-5.20;99.90
3492;DHT22;1760;52.480;13.422;2024-01-10T03:33:01;-5.20;99.90
3492;DHT22;1760;52.480;13.422;2024-01-10T03:35:31;-5.20;99.90
3492;DHT22;1760;52.480;13.422;2024-01-10T03:37:58;-5.20;99.90
3492;DHT22;1760;52.480;13.422;2024-01-10T03:40:25;-5.20;99.90
3492;DHT22;1760;52.480;13.422;2024-01-10T03:42:52;-5.20;99.90
3492;DHT22;1760;52.480;13.422;2024-01-10T03:45:18;-5.20;99.90
3492;DHT22;1760;52.480;13.422;2024-01-10T03:47:48;-5.20;99.90
3492;DHT22;1760;52.480;13.422;2024-01-10T03:50:17;-5.30;99.90
3492;DHT22;1760;52.480;13.422;2024-01-10T03:52:46;-5.30;99.90
3492;DHT22;1760;52.480;13.422;2024-01-10T03:55:13;-5.20;99.90
3492;DHT22;1760;52.480;13.422;2024-01-10T03:57:40;-5.20;99.90
3492;DHT22;1760;52.480;13.422;2024-01-10T04:00:08;-5.20;99.90
3492;DHT22;1760;52.480;13.422;2024-01-10T04:02:36;-5.10;99.90
3492;DHT22;1760;52.480;13.422;2024-01-10T04:05:06;-5.10;99.90
3492;DHT22;1760;52.480;13.422;2024-01-10T04:07:34;-5.10;99.90
3492;DHT22;1760;52.480;13.422;2024-01-10T04:10:02;-5.20;99.90
3492;DHT22;1760;52.480;13.422;2024-01-10T04:12:29;-5.20;99.90
3492;DHT22;1760;52.480;13.422;2024-01-10T04:14:57;-5.20;99.90
3492;DHT22;1760;52.480;13.422;2024-01-10T04:17:23;-5.10;99.90
3492;DHT22;1760;52.480;13.422;2024-01-10T04:19:50;-5.20;99.90
3492;DHT22;1760;52.480;13.422;2024-01-10T04:22:17;-5.10;99.90
3492;DHT22;1760;52.480;13.422;2024-01-10T04:24:44;-5.10;99.90
3492;DHT22;1760;52.480;13.422;2024-01-10T04:27:12;-5.10;99.90
3492;DHT22;1760;52.480;13.422;2024-01-10T04:29:39;-5.10;99.90
3492;DHT22;1760;52.480;13.422;2024-01-10T04:32:06;-5.10;99.90
3492;DHT22;1760;52.480;13.422;2024-01-10T04:34:33;-5.10;99.90
3492;DHT22;1760;52.480;13.422;2024-01-10T04:37:00;-5.10;99.90
3492;DHT22;1760;52.480;13.422;2024-01-10T04:39:27;-5.20;99.90
3492;DHT22;1760;52.480;13.422;2024-01-10T04:41:54;-5.20;99.90
3492;DHT22;1760;52.480;13.422;2024-01-10T04:44:22;-5.10;99.90
3492;DHT22;1760;52.480;13.422;2024-01-10T04:46:49;-5.10;99.90
3492;DHT22;1760;52.480;13.422;2024-01-10T04:49:16;-5.10;99.90
3492;DHT22;1760;52.480;13.422;2024-01-10T04:51:43;-4.00;99.90
3492;DHT22;1760;52.480;13.422;2024-01-10T04:54:10;-5.10;99.90
3492;DHT22;1760;52.480;13.422;2024-01-10T04:56:38;-5.20;99.90
3492;DHT22;1760;52.480;13.422;2024-01-10T04:59:05;-5.20;99.90
3492;DHT22;1760;52.480;13.422;2024-01-10T05:01:34;-5.20;99.90
3492;DHT22;1760;52.480;13.422;2024-01-10T05:04:02;-5.30;99.90
3492;DHT22;1760;52.480;13.422;2024-01-10T05:06:30;-5.30;99.90
3492;DHT22;1760;52.480;13.422;2024-01-10T05:08:57;-5.30;99.90
3492;DHT22;1760;52.480;13.422;2024-01-10T05:11:25;-5.40;99.90
3492;DHT22;1760;52.480;13.422;2024-01-10T05:13:52;-5.40;99.90
3492;DHT22;1760;52.480;13.422;2024-01-10T05:16:19;-5.50;99.90
3492;DHT22;1760;52.480;13.422;2024-01-10T05:18:47;-5.50;99.90
3492;DHT22;1760;52.480;13.422;2024-01-10T05:21:14;-5.30;99.90
3492;DHT22;1760;52.480;13.422;2024-01-10T05:23:41;-5.50;99.90
3492;DHT22;1760;52.480;13.422;2024-01-10T05:26:08;-5.50;99.90
3492;DHT22;1760;52.480;13.422;2024-01-10T05:28:35;-5.50;99.90
3492;DHT22;1760;52.480;13.422;2024-01-10T05:31:02;-5.50;99.90
3492;DHT22;1760;52.480;13.422;2024-01-10T05:33:29;-5.50;99.90
3492;DHT22;1760;52.480;13.422;2024-01-10T05:35:57;-5.50;99.90
3492;DHT22;1760;52.480;13.422;2024-01-10T05:38:24;-5.50;99.90
3492;DHT22;1760;52.480;13.422;2024-01-10T05:40:51;-5.50;99.90
3492;DHT22;1760;52.480;13.422;2024-01-10T05:43:18;-5.40;99.90
3492;DHT22;1760;52.480;13.422;2024-01-10T05:45:47;-5.40;99.90
3492;DHT22;1760;52.480;13.422;2024-01-10T05:48:16;-5.50;99.90
3492;DHT22;1760;52.480;13.422;2024-01-10T05:50:43;-5.50;99.90
3492;DHT22;1760;52.480;13.422;2024-01-10T05:53:12;-5.40;99.90
3492;DHT22;1760;52.480;13.422;2024-01-10T05:55:42;-5.40;99.90
3492;DHT22;1760;52.480;13.422;2024-01-10T05:58:09;-5.40;99.90
3492;DHT22;1760;52.480;13.422;2024-01-10T06:00:36;-5.40;99.90
3492;DHT22;1760;52.480;13.422;2024-01-10T06:03:03;-5.40;99.90
3492;DHT22;1760;52.480;13.422;2024-01-10T06:05:30;-5.50;99.90
3492;DHT22;1760;52.480;13.422;2024-01-10T06:07:57;-5.40;99.90
3492;DHT22;1760;52.480;13.422;2024-01-10T06:10:26;-5.40;99.90
3492;DHT22;1760;52.480;13.422;2024-01-10T06:12:54;-5.30;99.90
3492;DHT22;1760;52.480;13.422;2024-01-10T06:15:21;-5.30;99.90
3492;DHT22;1760;52.480;13.422;2024-01-10T06:17:48;-5.30;99.90
3492;DHT22;1760;52.480;13.422;2024-01-10T06:20:16;-5.30;99.90
3492;DHT22;1760;52.480;13.422;2024-01-10T06:22:46;-5.40;99.90
3492;DHT22;1760;52.480;13.422;2024-01-10T06:25:13;-5.30;99.90
3492;DHT22;1760;52.480;13.422;2024-01-10T06:27:42;-5.40;99.90
3492;DHT22;1760;52.480;13.422;2024-01-10T06:30:09;-5.40;99.90
3492;DHT22;1760;52.480;13.422;2024-01-10T06:32:36;-5.50;99.90
3492;DHT22;1760;52.480;13.422;2024-01-10T06:35:04;-5.50;99.90
3492;DHT22;1760;52.480;13.422;2024-01-10T06:37:31;-5.50;99.90
3492;DHT22;1760;52.480;13.422;2024-01-10T06:39:58;-5.50;99.90
3492;DHT22;1760;52.480;13.422;2024-01-10T06:42:27;-5.50;99.90
3492;DHT22;1760;52.480;13.422;2024-01-10T06:44:58;-5.50;99.90
3492;DHT22;1760;52.480;13.422;2024-01-10T06:47:25;-5.50;99.90
3492;DHT22;1760;52.480;13.422;2024-01-10T06:49:52;-5.50;99.90
3492;DHT22;1760;52.480;13.422;2024-01-10T06:52:18;-5.40;99.90
3492;DHT22;1760;52.480;13.422;2024-01-10T06:54:45;-5.40;99.90
3492;DHT22;1760;52.480;13.422;2024-01-10T06:57:12;-5.40;99.90
3492;DHT22;1760;52.480;13.422;2024-01-10T06:59:39;-5.30;99.90
3492;DHT22;1760;52.480;13.422;2024-01-10T07:02:07;-5.30;99.90
3492;DHT22;1760;52.480;13.422;2024-01-10T07:04:37;-5.30;99.90
3492;DHT22;1760;52.480;13.422;2024-01-10T07:07:04;-5.30;99.90
3492;DHT22;1760;52.480;13.422;2024-01-10T07:09:34;-5.30;99.90
3492;DHT22;1760;52.480;13.422;2024-01-10T07:12:00;-5.30;99.90
3492;DHT22;1760;52.480;13.422;2024-01-10T07:14:29;-5.30;99.90
3492;DHT22;1760;52.480;13.422;2024-01-10T07:16:56;-5.40;99.90
3492;DHT22;1760;52.480;13.422;2024-01-10T07:19:24;-5.40;99.90
3492;DHT22;1760;52.480;13.422;2024-01-10T07:21:51;-5.40;99.90
3492;DHT22;1760;52.480;13.422;2024-01-10T07:24:19;-5.40;99.90
3492;DHT22;1760;52.480;13.422;2024-01-10T07:26:46;-5.40;99.90
3492;DHT22;1760;52.480;13.422;2024-01-10T07:29:13;-5.40;99.90
3492;DHT22;1760;52.480;13.422;2024-01-10T07:31:40;-5.40;99.90
3492;DHT22;1760;52.480;13.422;2024-01-10T07:34:07;-5.30;99.90
3492;DHT22;1760;52.480;13.422;2024-01-10T07:36:41;-5.40;99.90
3492;DHT22;1760;52.480;13.422;2024-01-10T07:39:09;-5.30;99.90
3492;DHT22;1760;52.480;13.422;2024-01-10T07:41:38;-5.30;99.90
3492;DHT22;1760;52.480;13.422;2024-01-10T07:44:05;-5.30;99.90
3492;DHT22;1760;52.480;13.422;2024-01-10T07:46:35;-5.30;99.90
3492;DHT22;1760;52.480;13.422;2024-01-10T07:49:03;-5.30;99.90
3492;DHT22;1760;52.480;13.422;2024-01-10T07:51:44;-5.40;99.90
3492;DHT22;1760;52.480;13.422;2024-01-10T07:54:11;-4.90;99.90
3492;DHT22;1760;52.480;13.422;2024-01-10T07:56:38;-5.30;99.90
3492;DHT22;1760;52.480;13.422;2024-01-10T07:59:07;-5.20;99.90
3492;DHT22;1760;52.480;13.422;2024-01-10T08:01:34;-5.20;99.90
3492;DHT22;1760;52.480;13.422;2024-01-10T08:04:02;-5.20;99.90
3492;DHT22;1760;52.480;13.422;2024-01-10T08:06:30;-5.10;99.90
3492;DHT22;1760;52.480;13.422;2024-01-10T08:08:59;-5.10;99.90
3492;DHT22;1760;52.480;13.422;2024-01-10T08:11:26;-5.00;99.90
3492;DHT22;1760;52.480;13.422;2024-01-10T08:13:52;-5.00;99.90
3492;DHT22;1760;52.480;13.422;2024-01-10T08:16:21;-5.00;99.90
3492;DHT22;1760;52.480;13.422;2024-01-10T08:18:47;-5.00;99.90
3492;DHT22;1760;52.480;13.422;2024-01-10T08:21:16;-4.90;99.90
3492;DHT22;1760;52.480;13.422;2024-01-10T08:23:46;-4.90;99.90
3492;DHT22;1760;52.480;13.422;2024-01-10T08:26:14;-4.80;99.90
3492;DHT22;1760;52.480;13.422;2024-01-10T08:28:41;-4.90;99.90
3492;DHT22;1760;52.480;13.422;2024-01-10T08:31:08;-4.80;99.90
3492;DHT22;1760;52.480;13.422;2024-01-10T08:33:35;-4.80;99.90
3492;DHT22;1760;52.480;13.422;2024-01-10T08:36:02;-4.80;99.90
3492;DHT22;1760;52.480;13.422;2024-01-10T08:38:30;-4.80;99.90
3492;DHT22;1760;52.480;13.422;2024-01-10T08:40:57;-4.70;99.90
3492;DHT22;1760;52.480;13.422;2024-01-10T08:43:25;-4.70;99.90
3492;DHT22;1760;52.480;13.422;2024-01-10T08:45:52;-4.60;99.90
3492;DHT22;1760;52.480;13.422;2024-01-10T08:48:19;-4.50;99.90
3492;DHT22;1760;52.480;13.422;2024-01-10T08:50:46;-4.60;99.90
3492;DHT22;1760;52.480;13.422;2024-01-10T08:53:13;-4.50;99.90
3492;DHT22;1760;52.480;13.422;2024-01-10T08:55:41;-4.50;99.90
3492;DHT22;1760;52.480;13.422;2024-01-10T08:58:08;-4.50;99.90
3492;DHT22;1760;52.480;13.422;2024-01-10T09:00:36;-4.40;99.90
3492;DHT22;1760;52.480;13.422;2024-01-10T09:03:04;-4.40;99.90
3492;DHT22;1760;52.480;13.422;2024-01-10T09:05:31;-4.30;99.90
3492;DHT22;1760;52.480;13.422;2024-01-10T09:07:58;-4.30;99.90
3492;DHT22;1760;52.480;13.422;2024-01-10T09:10:25;-4.30;99.90
3492;DHT22;1760;52.480;13.422;2024-01-10T09:12:53;-4.20;99.90
3492;DHT22;1760;52.480;13.422;2024-01-10T09:15:22;-4.20;99.90
3492;DHT22;1760;52.480;13.422;2024-01-10T09:17:50;-4.10;99.90
3492;DHT22;1760;52.480;13.422;2024-01-10T09:20:18;-4.00;99.90
3492;DHT22;1760;52.480;13.422;2024-01-10T09:22:46;-4.00;99.90
3492;DHT22;1760;52.480;13.422;2024-01-10T09:25:12;-4.00;99.90
3492;DHT22;1760;52.480;13.422;2024-01-10T09:27:40;-3.90;99.90
3492;DHT22;1760;52.480;13.422;2024-01-10T09:30:09;-3.90;99.90
3492;DHT22;1760;52.480;13.422;2024-01-10T09:32:36;-3.80;99.90
3492;DHT22;1760;52.480;13.422;2024-01-10T09:35:05;-3.70;99.90
3492;DHT22;1760;52.480;13.422;2024-01-10T09:37:35;-3.60;99.90
3492;DHT22;1760;52.480;13.422;2024-01-10T09:46:35;-2.40;99.90
3492;DHT22;1760;52.480;13.422;2024-01-10T09:49:34;-1.60;99.90
3492;DHT22;1760;52.480;13.422;2024-01-10T09:52:36;-0.90;99.90
3492;DHT22;1760;52.480;13.422;2024-01-10T09:55:07;-0.40;99.90
3492;DHT22;1760;52.480;13.422;2024-01-10T10:00:24;0.40;99.90
3492;DHT22;1760;52.480;13.422;2024-01-10T10:02:56;0.90;99.90
3492;DHT22;1760;52.480;13.422;2024-01-10T10:05:30;1.10;97.20
3492;DHT22;1760;52.480;13.422;2024-01-10T10:08:00;1.30;94.90
3492;DHT22;1760;52.480;13.422;2024-01-10T10:10:28;1.20;93.60
3492;DHT22;1760;52.480;13.422;2024-01-10T10:12:55;1.20;92.40
3492;DHT22;1760;52.480;13.422;2024-01-10T10:15:23;1.70;99.90
3492;DHT22;1760;52.480;13.422;2024-01-10T10:17:57;2.60;99.90
3492;DHT22;1760;52.480;13.422;2024-01-10T10:20:25;2.40;97.90
3492;DHT22;1760;52.480;13.422;2024-01-10T10:23:03;2.70;93.90
3492;DHT22;1760;52.480;13.422;2024-01-10T10:25:31;3.30;88.40
3492;DHT22;1760;52.480;13.422;2024-01-10T10:28:02;3.90;80.00
3492;DHT22;1760;52.480;13.422;2024-01-10T10:30:31;4.70;74.00
3492;DHT22;1760;52.480;13.422;2024-01-10T10:32:58;5.30;67.00
3492;DHT22;1760;52.480;13.422;2024-01-10T10:35:32;5.60;62.70
3492;DHT22;1760;52.480;13.422;2024-01-10T10:38:00;5.90;61.60
3492;DHT22;1760;52.480;13.422;2024-01-10T10:40:27;5.90;58.70
3492;DHT22;1760;52.480;13.422;2024-01-10T10:42:55;5.60;57.50
3492;DHT22;1760;52.480;13.422;2024-01-10T10:45:22;4.80;57.80
3492;DHT22;1760;52.480;13.422;2024-01-10T10:47:56;4.00;59.20
3492;DHT22;1760;52.480;13.422;2024-01-10T10:50:28;3.20;61.00
3492;DHT22;1760;52.480;13.422;2024-01-10T10:52:56;2.30;63.70
3492;DHT22;1760;52.480;13.422;2024-01-10T10:55:26;1.50;66.80
3492;DHT22;1760;52.480;13.422;2024-01-10T10:57:54;1.00;70.20
3492;DHT22;1760;52.480;13.422;2024-01-10T11:00:22;0.60;73.60
3492;DHT22;1760;52.480;13.422;2024-01-10T11:02:53;0.30;76.90
3492;DHT22;1760;52.480;13.422;2024-01-10T11:05:20;0.10;79.20
3492;DHT22;1760;52.480;13.422;2024-01-10T11:07:48;0.00;81.40
3492;DHT22;1760;52.480;13.422;2024-01-10T11:10:21;-0.20;83.80
3492;DHT22;1760;52.480;13.422;2024-01-10T11:12:59;0.50;87.10
3492;DHT22;1760;52.480;13.422;2024-01-10T11:15:51;-0.40;89.90
3492;DHT22;1760;52.480;13.422;2024-01-10T11:18:40;-0.60;91.50
3492;DHT22;1760;52.480;13.422;2024-01-10T11:21:19;-0.60;93.20
3492;DHT22;1760;52.480;13.422;2024-01-10T11:23:53;-0.70;94.70
3492;DHT22;1760;52.480;13.422;2024-01-10T11:26:21;-0.60;95.50
3492;DHT22;1760;52.480;13.422;2024-01-10T11:28:50;-0.50;95.80
3492;DHT22;1760;52.480;13.422;2024-01-10T11:31:28;-0.50;95.90
3492;DHT22;1760;52.480;13.422;2024-01-10T11:33:56;-0.50;95.90
3492;DHT22;1760;52.480;13.422;2024-01-10T11:36:23;-0.50;95.50
3492;DHT22;1760;52.480;13.422;2024-01-10T11:38:55;-0.50;94.90
3492;DHT22;1760;52.480;13.422;2024-01-10T11:41:29;-0.50;94.40
3492;DHT22;1760;52.480;13.422;2024-01-10T11:44:29;-0.50;94.30
3492;DHT22;1760;52.480;13.422;2024-01-10T11:46:58;-0.40;94.60
3492;DHT22;1760;52.480;13.422;2024-01-10T11:49:25;-0.40;94.40
3492;DHT22;1760;52.480;13.422;2024-01-10T11:51:55;-0.40;95.00
3492;DHT22;1760;52.480;13.422;2024-01-10T11:54:42;-0.40;95.30
3492;DHT22;1760;52.480;13.422;2024-01-10T11:57:18;-0.40;95.40
3492;DHT22;1760;52.480;13.422;2024-01-10T11:59:50;-0.30;94.70
3492;DHT22;1760;52.480;13.422;2024-01-10T12:02:25;-0.30;94.30
3492;DHT22;1760;52.480;13.422;2024-01-10T12:05:01;-0.30;93.80
3492;DHT22;1760;52.480;13.422;2024-01-10T12:07:28;-0.30;93.80
3492;DHT22;1760;52.480;13.422;2024-01-10T12:09:57;-0.20;93.70
3492;DHT22;1760;52.480;13.422;2024-01-10T12:12:23;-0.20;92.80
3492;DHT22;1760;52.480;13.422;2024-01-10T12:14:53;-0.10;92.20
3492;DHT22;1760;52.480;13.422;2024-01-10T12:17:20;-0.10;91.80
3492;DHT22;1760;52.480;13.422;2024-01-10T12:19:51;-0.10;91.10
3492;DHT22;1760;52.480;13.422;2024-01-10T12:22:19;0.00;90.60
3492;DHT22;1760;52.480;13.422;2024-01-10T12:24:48;0.00;89.90
3492;DHT22;1760;52.480;13.422;2024-01-10T12:27:18;0.10;89.90
3492;DHT22;1760;52.480;13.422;2024-01-10T12:29:48;0.10;88.30
3492;DHT22;1760;52.480;13.422;2024-01-10T12:32:18;0.20;88.30
3492;DHT22;1760;52.480;13.422;2024-01-10T12:34:47;0.20;88.10
3492;DHT22;1760;52.480;13.422;2024-01-10T12:37:14;0.30;87.70
3492;DHT22;1760;52.480;13.422;2024-01-10T12:39:41;0.30;85.50
3492;DHT22;1760;52.480;13.422;2024-01-10T12:42:08;0.40;84.20
3492;DHT22;1760;52.480;13.422;2024-01-10T12:44:43;0.40;82.70
3492;DHT22;1760;52.480;13.422;2024-01-10T12:47:21;0.40;82.20
3492;DHT22;1760;52.480;13.422;2024-01-10T12:49:48;0.40;82.00
3492;DHT22;1760;52.480;13.422;2024-01-10T12:52:17;0.50;83.40
3492;DHT22;1760;52.480;13.422;2024-01-10T12:54:47;0.60;82.10
3492;DHT22;1760;52.480;13.422;2024-01-10T12:57:14;0.60;81.60
3492;DHT22;1760;52.480;13.422;2024-01-10T12:59:41;0.60;81.20
3492;DHT22;1760;52.480;13.422;2024-01-10T13:02:08;0.70;79.70
3492;DHT22;1760;52.480;13.422;2024-01-10T13:04:38;0.70;79.30
3492;DHT22;1760;52.480;13.422;2024-01-10T13:07:05;0.70;77.80
3492;DHT22;1760;52.480;13.422;2024-01-10T13:09:32;0.80;77.50
3492;DHT22;1760;52.480;13.422;2024-01-10T13:11:58;0.80;78.10
3492;DHT22;1760;52.480;13.422;2024-01-10T13:14:25;0.70;77.90
3492;DHT22;1760;52.480;13.422;2024-01-10T13:16:52;0.70;78.50
3492;DHT22;1760;52.480;13.422;2024-01-10T13:19:19;0.80;79.40
3492;DHT22;1760;52.480;13.422;2024-01-10T13:21:47;0.80;78.90
3492;DHT22;1760;52.480;13.422;2024-01-10T13:24:14;0.80;79.90
3492;DHT22;1760;52.480;13.422;2024-01-10T13:26:41;0.80;80.20
3492;DHT22;1760;52.480;13.422;2024-01-10T13:29:08;0.80;80.00
3492;DHT22;1760;52.480;13.422;2024-01-10T13:31:37;0.80;79.80
3492;DHT22;1760;52.480;13.422;2024-01-10T13:34:05;0.90;79.40
3492;DHT22;1760;52.480;13.422;2024-01-10T13:36:32;0.90;79.60
3492;DHT22;1760;52.480;13.422;2024-01-10T13:39:00;0.90;80.00
3492;DHT22;1760;52.480;13.422;2024-01-10T13:41:29;0.80;79.90
3492;DHT22;1760;52.480;13.422;2024-01-10T13:43:56;0.90;80.90
3492;DHT22;1760;52.480;13.422;2024-01-10T13:46:23;0.80;82.10
3492;DHT22;1760;52.480;13.422;2024-01-10T13:48:49;0.80;82.70
3492;DHT22;1760;52.480;13.422;2024-01-10T13:51:22;0.80;82.90
3492;DHT22;1760;52.480;13.422;2024-01-10T13:53:49;0.80;83.30
3492;DHT22;1760;52.480;13.422;2024-01-10T13:56:17;0.80;83.80
3492;DHT22;1760;52.480;13.422;2024-01-10T13:58:44;0.80;84.40
3492;DHT22;1760;52.480;13.422;2024-01-10T14:01:13;0.80;85.20
3492;DHT22;1760;52.480;13.422;2024-01-10T14:03:49;0.80;85.10
3492;DHT22;1760;52.480;13.422;2024-01-10T14:06:16;0.80;84.50
3492;DHT22;1760;52.480;13.422;2024-01-10T14:08:47;0.70;84.70
3492;DHT22;1760;52.480;13.422;2024-01-10T14:11:20;0.70;85.50
3492;DHT22;1760;52.480;13.422;2024-01-10T14:13:47;0.70;85.70
3492;DHT22;1760;52.480;13.422;2024-01-10T14:16:16;0.70;85.30
3492;DHT22;1760;52.480;13.422;2024-01-10T14:18:52;0.70;85.50
3492;DHT22;1760;52.480;13.422;2024-01-10T14:21:21;0.70;85.80
3492;DHT22;1760;52.480;13.422;2024-01-10T14:23:48;0.70;86.60
3492;DHT22;1760;52.480;13.422;2024-01-10T14:26:15;0.60;87.10
3492;DHT22;1760;52.480;13.422;2024-01-10T14:28:43;0.60;88.50
3492;DHT22;1760;52.480;13.422;2024-01-10T14:31:10;0.60;88.40
3492;DHT22;1760;52.480;13.422;2024-01-10T14:33:39;0.60;89.30
3492;DHT22;1760;52.480;13.422;2024-01-10T14:36:06;0.60;89.90
3492;DHT22;1760;52.480;13.422;2024-01-10T14:38:33;0.50;90.00
3492;DHT22;1760;52.480;13.422;2024-01-10T14:41:00;0.60;90.40
3492;DHT22;1760;52.480;13.422;2024-01-10T14:43:27;0.50;90.60
3492;DHT22;1760;52.480;13.422;2024-01-10T14:45:55;0.50;90.80
3492;DHT22;1760;52.480;13.422;2024-01-10T14:48:22;0.50;91.10
3492;DHT22;1760;52.480;13.422;2024-01-10T14:50:49;0.40;90.70
3492;DHT22;1760;52.480;13.422;2024-01-10T14:53:18;0.40;91.10
3492;DHT22;1760;52.480;13.422;2024-01-10T14:55:45;0.40;90.90
3492;DHT22;1760;52.480;13.422;2024-01-10T14:58:14;0.40;91.00
3492;DHT22;1760;52.480;13.422;2024-01-10T15:00:40;0.40;91.10
3492;DHT22;1760;52.480;13.422;2024-01-10T15:03:10;0.40;92.40
3492;DHT22;1760;52.480;13.422;2024-01-10T15:05:40;0.30;92.40
3492;DHT22;1760;52.480;13.422;2024-01-10T15:08:08;0.30;92.30
3492;DHT22;1760;52.480;13.422;2024-01-10T15:10:37;0.30;92.60
3492;DHT22;1760;52.480;13.422;2024-01-10T15:13:08;0.30;93.90
3492;DHT22;1760;52.480;13.422;2024-01-10T15:15:37;0.20;93.30
3492;DHT22;1760;52.480;13.422;2024-01-10T15:18:04;0.20;93.80
3492;DHT22;1760;52.480;13.422;2024-01-10T15:20:32;0.20;94.00
3492;DHT22;1760;52.480;13.422;2024-01-10T15:22:59;0.20;94.30
3492;DHT22;1760;52.480;13.422;2024-01-10T15:25:29;0.20;93.70
3492;DHT22;1760;52.480;13.422;2024-01-10T15:27:56;0.20;93.10
3492;DHT22;1760;52.480;13.422;2024-01-10T15:30:24;0.20;93.10
3492;DHT22;1760;52.480;13.422;2024-01-10T15:32:52;0.20;92.70
3492;DHT22;1760;52.480;13.422;2024-01-10T15:35:19;0.20;92.70
3492;DHT22;1760;52.480;13.422;2024-01-10T15:37:47;0.20;92.10
3492;DHT22;1760;52.480;13.422;2024-01-10T15:40:14;0.20;92.20
3492;DHT22;1760;52.480;13.422;2024-01-10T15:42:41;0.10;92.30
3492;DHT22;1760;52.480;13.422;2024-01-10T15:45:10;0.10;92.80
3492;DHT22;1760;52.480;13.422;2024-01-10T15:47:38;0.10;94.00
3492;DHT22;1760;52.480;13.422;2024-01-10T15:50:06;0.10;97.80
3492;DHT22;1760;52.480;13.422;2024-01-10T15:52:34;0.10;96.80
3492;DHT22;1760;52.480;13.422;2024-01-10T15:55:04;0.10;96.60
3492;DHT22;1760;52.480;13.422;2024-01-10T15:57:34;0.00;97.60
3492;DHT22;1760;52.480;13.422;2024-01-10T16:00:01;0.00;98.30
3492;DHT22;1760;52.480;13.422;2024-01-10T16:02:32;0.00;98.80
3492;DHT22;1760;52.480;13.422;2024-01-10T16:05:00;-0.10;99.90
3492;DHT22;1760;52.480;13.422;2024-01-10T16:07:27;-0.10;99.90